createdAt,value
2022-12-19T00:01:51.635Z,92.35
2022-12-19T00:03:57.315Z,92.30
2022-12-19T00:06:02.898Z,92.55
2022-12-19T00:08:16.938Z,92.25
2022-12-19T00:10:20.607Z,92.84
2022-12-19T00:12:26.991Z,92.82
2022-12-19T00:14:30.292Z,92.00
2022-12-19T00:16:33.706Z,92.85
2022-12-19T00:18:37.373Z,93.02
2022-12-19T00:20:40.676Z,93.36
2022-12-19T00:22:43.940Z,92.67
2022-12-19T00:24:47.234Z,93.45
2022-12-19T00:26:51.260Z,93.71
2022-12-19T00:28:58.198Z,93.22
2022-12-19T00:31:01.681Z,93.53
2022-12-19T00:33:04.969Z,93.87
2022-12-19T00:35:08.707Z,93.43
2022-12-19T00:37:12.223Z,93.43
2022-12-19T00:39:15.601Z,93.35
2022-12-19T00:41:21.386Z,93.87
2022-12-19T00:43:25.075Z,93.61
2022-12-19T00:45:29.865Z,94.03
2022-12-19T00:47:34.281Z,93.97
2022-12-19T00:49:38.393Z,93.70
2022-12-19T00:51:42.324Z,94.31
2022-12-19T00:53:48.297Z,93.71
2022-12-19T00:55:51.885Z,93.68
2022-12-19T00:57:55.499Z,94.49
2022-12-19T01:00:03.068Z,93.83
2022-12-19T01:02:07.875Z,93.73
2022-12-19T01:04:31.843Z,94.31
2022-12-19T01:06:38.225Z,94.18
2022-12-19T01:08:42.560Z,94.69
2022-12-19T01:10:46.906Z,94.56
2022-12-19T01:12:49.640Z,94.43
2022-12-19T01:14:54.710Z,94.48
2022-12-19T01:17:00.802Z,94.30
2022-12-19T01:19:05.669Z,95.35
2022-12-19T01:21:11.910Z,94.89
2022-12-19T01:23:16.798Z,95.43
2022-12-19T01:25:20.489Z,95.07
2022-12-19T01:27:23.915Z,95.46
2022-12-19T01:29:27.505Z,95.71
2022-12-19T01:31:31.829Z,96.04
2022-12-19T01:33:35.333Z,95.98
2022-12-19T01:35:40.354Z,96.01
2022-12-19T01:37:43.845Z,96.49
2022-12-19T01:39:47.417Z,97.03
2022-12-19T01:41:50.851Z,97.19
2022-12-19T01:44:00.494Z,97.56
2022-12-19T01:46:07.149Z,97.51
2022-12-19T01:48:18.416Z,97.36
2022-12-19T01:50:29.655Z,97.67
2022-12-19T01:52:34.524Z,97.39
2022-12-19T01:54:41.825Z,97.44
2022-12-19T01:56:49.825Z,97.82
2022-12-19T01:59:05.775Z,98.20
2022-12-19T02:01:13.186Z,98.05
2022-12-19T02:03:24.626Z,98.43
2022-12-19T02:05:28.279Z,97.83
2022-12-19T02:07:32.821Z,98.05
2022-12-19T02:09:38.257Z,98.45
2022-12-19T02:11:41.759Z,98.13
2022-12-19T02:13:46.808Z,98.06
2022-12-19T02:16:00.292Z,98.02
2022-12-19T02:18:13.285Z,97.90
2022-12-19T02:20:41.460Z,97.79
2022-12-19T02:23:01.746Z,98.15
2022-12-19T02:25:41.998Z,97.78
2022-12-19T02:28:17.926Z,97.33
2022-12-19T02:30:42.343Z,97.34
2022-12-19T02:32:50.836Z,97.32
2022-12-19T02:35:03.734Z,96.81
2022-12-19T02:37:11.819Z,96.44
2022-12-19T02:39:20.274Z,96.24
2022-12-19T02:41:30.636Z,96.37
2022-12-19T02:43:41.752Z,96.44
2022-12-19T02:45:49.160Z,95.82
2022-12-19T02:47:53.046Z,95.85
2022-12-19T02:49:58.265Z,95.85
2022-12-19T02:52:10.196Z,95.83
2022-12-19T02:54:13.593Z,95.82
2022-12-19T02:56:30.734Z,95.99
2022-12-19T02:58:46.661Z,95.25
2022-12-19T03:01:03.430Z,95.19
2022-12-19T03:03:13.162Z,95.05
2022-12-19T03:05:26.814Z,94.90
2022-12-19T03:07:40.938Z,94.74
2022-12-19T03:09:52.768Z,94.63
2022-12-19T03:12:04.284Z,94.63
2022-12-19T03:14:11.964Z,94.68
2022-12-19T03:16:16.845Z,94.75
2022-12-19T03:18:21.096Z,95.21
2022-12-19T03:20:33.267Z,94.53
2022-12-19T03:22:36.876Z,94.80
2022-12-19T03:24:40.800Z,94.59
2022-12-19T03:26:51.567Z,94.60
2022-12-19T03:28:59.577Z,94.11
2022-12-19T03:31:05.295Z,93.97
2022-12-19T03:33:12.960Z,94.26
2022-12-19T03:35:21.403Z,94.67
2022-12-19T03:37:29.438Z,94.78
2022-12-19T03:39:33.852Z,94.98
2022-12-19T03:41:56.863Z,95.27
2022-12-19T03:44:00.508Z,95.35
2022-12-19T03:46:10.030Z,95.81
2022-12-19T03:48:20.433Z,95.89
2022-12-19T03:50:29.799Z,96.29
2022-12-19T03:52:40.676Z,96.72
2022-12-19T03:54:53.751Z,96.98
2022-12-19T03:57:03.994Z,96.93
2022-12-19T03:59:10.599Z,97.54
2022-12-19T04:01:14.353Z,97.72
2022-12-19T04:03:20.510Z,97.40
2022-12-19T04:05:26.128Z,98.03
2022-12-19T04:07:30.108Z,98.22
2022-12-19T04:09:34.981Z,98.64
2022-12-19T04:11:43.025Z,98.69
2022-12-19T04:13:56.936Z,98.79
2022-12-19T04:16:07.830Z,98.92
2022-12-19T04:18:14.660Z,99.16
2022-12-19T04:20:22.116Z,99.82
2022-12-19T04:22:30.489Z,99.86
2022-12-19T04:24:37.258Z,100.00
2022-12-19T04:26:45.618Z,100.00
2022-12-19T04:28:52.820Z,100.00
2022-12-19T04:30:56.347Z,100.00
2022-12-19T04:33:00.151Z,100.00
2022-12-19T04:35:04.204Z,100.00
2022-12-19T04:37:09.771Z,100.00
2022-12-19T04:39:13.222Z,100.00
2022-12-19T04:41:16.606Z,100.00
2022-12-19T04:43:19.908Z,100.00
2022-12-19T04:45:23.385Z,100.00
2022-12-19T04:47:27.474Z,100.00
2022-12-19T04:49:31.126Z,100.00
2022-12-19T04:51:34.591Z,100.00
2022-12-19T04:53:39.427Z,100.00
2022-12-19T04:55:44.143Z,100.00
2022-12-19T04:57:49.364Z,100.00
2022-12-19T04:59:52.670Z,100.00
2022-12-19T05:01:56.357Z,100.00
2022-12-19T05:04:04.371Z,100.00
2022-12-19T05:06:11.330Z,100.00
2022-12-19T05:08:14.688Z,100.00
2022-12-19T05:10:19.828Z,100.00
2022-12-19T05:12:23.174Z,100.00
2022-12-19T05:14:26.762Z,100.00
2022-12-19T05:16:31.034Z,100.00
2022-12-19T05:18:35.611Z,100.00
2022-12-19T05:20:39.305Z,100.00
2022-12-19T05:22:42.676Z,100.00
2022-12-19T05:24:46.029Z,100.00
2022-12-19T05:26:51.188Z,100.00
2022-12-19T05:28:54.929Z,100.00
2022-12-19T05:31:04.193Z,100.00
2022-12-19T05:33:09.540Z,100.00
2022-12-19T05:35:12.950Z,100.00
2022-12-19T05:37:16.440Z,100.00
2022-12-19T05:39:19.813Z,100.00
2022-12-19T05:41:23.530Z,100.00
2022-12-19T05:43:28.904Z,100.00
2022-12-19T05:45:32.250Z,100.00
2022-12-19T05:47:37.975Z,100.00
2022-12-19T05:49:41.605Z,100.00
2022-12-19T05:51:47.979Z,100.00
2022-12-19T05:53:52.001Z,100.00
2022-12-19T05:56:04.856Z,100.00
2022-12-19T05:58:08.317Z,100.00
2022-12-19T06:00:14.567Z,100.00
2022-12-19T06:02:18.127Z,100.00
2022-12-19T06:04:21.607Z,100.00
2022-12-19T06:06:26.695Z,100.00
2022-12-19T06:08:30.130Z,100.00
2022-12-19T06:10:33.897Z,100.00
2022-12-19T06:12:37.361Z,100.00
2022-12-19T06:14:41.167Z,100.00
2022-12-19T06:16:45.916Z,100.00
2022-12-19T06:18:49.692Z,100.00
2022-12-19T06:20:57.982Z,100.00
2022-12-19T06:23:02.146Z,100.00
2022-12-19T06:25:06.297Z,100.00
2022-12-19T06:27:09.949Z,100.00
2022-12-19T06:29:13.332Z,100.00
2022-12-19T06:31:17.137Z,100.00
2022-12-19T06:33:24.702Z,100.00
2022-12-19T06:35:28.199Z,100.00
2022-12-19T06:37:31.963Z,100.00
2022-12-19T06:39:35.258Z,100.00
2022-12-19T06:41:56.387Z,100.00
2022-12-19T06:44:00.166Z,100.00
2022-12-19T06:46:03.543Z,100.00
2022-12-19T06:48:07.421Z,100.00
2022-12-19T06:50:12.133Z,100.00
2022-12-19T06:52:15.658Z,100.00
2022-12-19T06:54:19.694Z,100.00
2022-12-19T06:56:23.179Z,100.00
2022-12-19T06:58:26.977Z,100.00
2022-12-19T07:00:30.847Z,100.00
2022-12-19T07:02:34.662Z,100.00
2022-12-19T07:04:42.797Z,100.00
2022-12-19T07:06:49.413Z,100.00
2022-12-19T07:08:54.602Z,100.00
2022-12-19T07:10:59.081Z,100.00
2022-12-19T07:13:02.642Z,100.00
2022-12-19T07:15:06.944Z,100.00
2022-12-19T07:17:10.693Z,100.00
2022-12-19T07:19:14.806Z,100.00
2022-12-19T07:21:18.321Z,100.00
2022-12-19T07:23:24.350Z,100.00
2022-12-19T07:25:27.716Z,100.00
2022-12-19T07:27:35.662Z,100.00
2022-12-19T07:29:39.656Z,100.00
2022-12-19T07:31:43.435Z,100.00
2022-12-19T07:33:46.849Z,100.00
2022-12-19T07:35:50.264Z,100.00
2022-12-19T07:37:54.007Z,100.00
2022-12-19T07:39:58.834Z,100.00
2022-12-19T07:42:02.205Z,100.00
2022-12-19T07:44:16.457Z,100.00
2022-12-19T07:46:20.121Z,100.00
2022-12-19T07:48:24.391Z,100.00
2022-12-19T07:50:27.799Z,100.00
2022-12-19T07:52:31.744Z,100.00
2022-12-19T07:54:35.312Z,100.00
2022-12-19T07:56:40.045Z,100.00
2022-12-19T07:58:44.580Z,100.00
2022-12-19T08:00:55.194Z,100.00
2022-12-19T08:02:59.789Z,100.00
2022-12-19T08:05:04.416Z,100.00
2022-12-19T08:07:07.958Z,100.00
2022-12-19T08:09:11.858Z,100.00
2022-12-19T08:11:17.820Z,100.00
2022-12-19T08:13:23.483Z,100.00
2022-12-19T08:15:27.331Z,100.00
2022-12-19T08:17:31.191Z,100.00
2022-12-19T08:19:34.491Z,100.00
2022-12-19T08:21:38.003Z,100.00
2022-12-19T08:23:41.677Z,100.00
2022-12-19T08:25:45.053Z,100.00
2022-12-19T08:27:48.451Z,100.00
2022-12-19T08:29:54.221Z,100.00
2022-12-19T08:31:57.906Z,100.00
2022-12-19T08:34:01.263Z,100.00
2022-12-19T08:36:06.004Z,100.00
2022-12-19T08:38:10.038Z,100.00
2022-12-19T08:40:13.736Z,100.00
2022-12-19T08:42:17.476Z,100.00
2022-12-19T08:44:21.030Z,100.00
2022-12-19T08:46:25.940Z,100.00
2022-12-19T08:48:29.598Z,100.00
2022-12-19T08:50:32.898Z,100.00
2022-12-19T08:52:36.508Z,100.00
2022-12-19T08:54:39.984Z,100.00
2022-12-19T08:56:46.728Z,100.00
2022-12-19T08:58:52.925Z,100.00
2022-12-19T09:01:05.279Z,100.00
2022-12-19T09:03:10.424Z,100.00
2022-12-19T09:05:59.780Z,100.00
2022-12-19T09:07:40.759Z,100.00
2022-12-19T09:09:44.137Z,100.00
2022-12-19T09:11:48.463Z,100.00
2022-12-19T09:13:51.887Z,100.00
2022-12-19T09:16:05.921Z,100.00
2022-12-19T09:18:10.569Z,100.00
2022-12-19T09:20:16.889Z,100.00
2022-12-19T09:22:27.770Z,100.00
2022-12-19T09:24:32.935Z,100.00
2022-12-19T09:26:38.517Z,100.00
2022-12-19T09:28:42.676Z,100.00
2022-12-19T09:30:46.322Z,100.00
2022-12-19T09:32:50.193Z,100.00
2022-12-19T09:34:54.998Z,100.00
2022-12-19T09:36:58.732Z,100.00
2022-12-19T09:39:02.148Z,100.00
2022-12-19T09:41:29.078Z,100.00
2022-12-19T09:43:49.521Z,100.00
2022-12-19T09:46:02.844Z,100.00
2022-12-19T09:48:23.570Z,100.00
2022-12-19T09:50:40.314Z,100.00
2022-12-19T09:52:51.406Z,100.00
2022-12-19T09:55:02.120Z,100.00
2022-12-19T09:57:12.827Z,100.00
2022-12-19T09:59:31.817Z,100.00
2022-12-19T10:01:56.684Z,100.00
2022-12-19T10:04:04.373Z,100.00
2022-12-19T10:07:16.109Z,100.00
2022-12-19T10:09:14.432Z,100.00
2022-12-19T10:12:35.668Z,100.00
2022-12-19T10:13:50.336Z,100.00
2022-12-19T10:16:04.752Z,100.00
2022-12-19T10:18:27.547Z,100.00
2022-12-19T10:20:38.459Z,100.00
2022-12-19T10:22:52.506Z,100.00
2022-12-19T10:25:21.050Z,100.00
2022-12-19T10:27:32.367Z,100.00
2022-12-19T10:29:49.865Z,100.00
2022-12-19T10:31:59.810Z,100.00
2022-12-19T10:34:16.364Z,100.00
2022-12-19T10:36:19.707Z,100.00
2022-12-19T10:38:30.102Z,100.00
2022-12-19T10:40:40.679Z,100.00
2022-12-19T10:42:52.382Z,100.00
2022-12-19T10:44:58.353Z,100.00
2022-12-19T10:47:01.737Z,100.00
2022-12-19T10:49:14.457Z,100.00
2022-12-19T10:51:24.491Z,100.00
2022-12-19T10:53:32.084Z,100.00
2022-12-19T10:55:43.909Z,100.00
2022-12-19T10:57:47.334Z,100.00
2022-12-19T10:59:58.803Z,100.00
2022-12-19T11:02:04.897Z,100.00
2022-12-19T11:04:28.554Z,100.00
2022-12-19T11:06:51.085Z,100.00
2022-12-19T11:09:18.965Z,100.00
2022-12-19T11:14:29.803Z,100.00
2022-12-19T11:17:49.588Z,100.00
2022-12-19T11:20:02.735Z,100.00
2022-12-19T11:27:48.711Z,100.00
2022-12-19T11:29:26.190Z,100.00
2022-12-19T11:29:35.298Z,100.00
2022-12-19T11:30:37.983Z,100.00
2022-12-19T11:30:45.728Z,100.00
2022-12-19T11:32:20.617Z,100.00
2022-12-19T11:33:25.391Z,100.00
2022-12-19T11:35:36.934Z,100.00
2022-12-19T11:37:47.062Z,100.00
2022-12-19T11:39:56.542Z,100.00
2022-12-19T11:42:08.175Z,100.00
2022-12-19T11:44:22.174Z,100.00
2022-12-19T11:46:38.025Z,100.00
2022-12-19T11:48:47.906Z,100.00
2022-12-19T11:51:00.973Z,100.00
2022-12-19T11:53:18.888Z,100.00
2022-12-19T11:55:27.214Z,100.00
2022-12-19T11:57:32.714Z,100.00
2022-12-19T11:59:37.752Z,100.00
2022-12-19T12:01:49.558Z,100.00
2022-12-19T12:04:09.791Z,100.00
2022-12-19T12:06:17.416Z,100.00
2022-12-19T12:11:13.838Z,100.00
2022-12-19T12:19:11.267Z,100.00
2022-12-19T12:23:13.242Z,100.00
2022-12-19T12:31:15.118Z,100.00
2022-12-19T12:31:15.729Z,100.00
2022-12-19T12:31:31.630Z,100.00
2022-12-19T12:31:31.853Z,100.00
2022-12-19T12:31:50.629Z,100.00
2022-12-19T12:31:51.536Z,100.00
2022-12-19T12:35:38.054Z,100.00
2022-12-19T12:35:56.638Z,100.00
2022-12-19T12:40:06.885Z,100.00
2022-12-19T12:42:18.825Z,100.00
2022-12-19T12:44:32.845Z,100.00
2022-12-19T12:46:41.278Z,99.99
2022-12-19T12:48:51.104Z,99.87
2022-12-19T12:50:55.565Z,99.65
2022-12-19T12:53:03.406Z,99.00
2022-12-19T12:55:15.377Z,99.29
2022-12-19T12:57:21.573Z,99.14
2022-12-19T12:59:30.057Z,99.00
2022-12-19T13:01:38.926Z,98.82
2022-12-19T13:03:43.608Z,98.08
2022-12-19T13:06:04.268Z,98.79
2022-12-19T13:08:32.622Z,97.80
2022-12-19T13:10:36.746Z,97.66
2022-12-19T13:13:02.421Z,98.15
2022-12-19T13:15:34.376Z,97.69
2022-12-19T13:18:02.807Z,97.69
2022-12-19T13:20:40.924Z,97.29
2022-12-19T13:23:02.343Z,97.33
2022-12-19T13:25:51.148Z,96.65
2022-12-19T13:27:57.725Z,97.06
2022-12-19T13:30:20.764Z,96.92
2022-12-19T13:32:24.699Z,96.17
2022-12-19T13:34:37.053Z,96.66
2022-12-19T13:39:55.756Z,96.56
2022-12-19T13:39:58.423Z,96.32
2022-12-19T13:42:21.472Z,96.04
2022-12-19T13:44:25.173Z,96.65
2022-12-19T13:46:39.833Z,96.79
2022-12-19T13:48:47.623Z,96.00
2022-12-19T13:50:52.345Z,95.54
2022-12-19T13:52:55.661Z,95.50
2022-12-19T13:54:59.950Z,95.94
2022-12-19T13:57:09.604Z,95.37
2022-12-19T13:59:14.625Z,95.32
2022-12-19T14:01:22.782Z,95.42
2022-12-19T14:03:38.018Z,95.33
2022-12-19T14:06:16.966Z,95.66
2022-12-19T14:08:07.439Z,95.28
2022-12-19T14:11:34.885Z,94.76
2022-12-19T14:13:50.132Z,95.22
2022-12-19T14:15:32.428Z,95.78
2022-12-19T14:17:35.764Z,94.88
2022-12-19T14:19:41.331Z,94.99
2022-12-19T14:22:06.856Z,94.75
2022-12-19T14:24:15.274Z,95.23
2022-12-19T14:28:20.707Z,94.42
2022-12-19T14:28:55.803Z,94.32
2022-12-19T14:31:01.648Z,94.26
2022-12-19T14:33:45.774Z,94.21
2022-12-19T14:36:07.636Z,94.47
2022-12-19T14:39:22.761Z,94.48
2022-12-19T14:40:28.052Z,93.37
2022-12-19T14:43:57.176Z,93.83
2022-12-19T14:53:51.244Z,93.51
2022-12-19T14:54:04.973Z,93.29
2022-12-19T14:54:09.146Z,93.64
2022-12-19T14:54:42.091Z,93.06
2022-12-19T14:56:17.807Z,92.86
2022-12-19T14:58:55.935Z,93.37
2022-12-19T15:00:51.016Z,93.22
2022-12-19T15:02:54.751Z,93.40
2022-12-19T15:05:03.759Z,93.50
2022-12-19T15:07:12.291Z,93.15
2022-12-19T15:10:58.509Z,92.86
2022-12-19T15:14:47.461Z,93.01
2022-12-19T15:14:56.032Z,93.22
2022-12-19T15:17:04.284Z,92.91
2022-12-19T15:19:13.659Z,93.01
2022-12-19T15:21:16.973Z,93.44
2022-12-19T15:23:22.540Z,93.29
2022-12-19T15:26:02.295Z,92.93
2022-12-19T15:27:49.689Z,92.99
2022-12-19T15:29:53.176Z,92.75
2022-12-19T15:31:56.689Z,92.52
2022-12-19T15:34:33.143Z,92.36
2022-12-19T15:36:25.037Z,92.82
2022-12-19T15:38:28.404Z,92.52
2022-12-19T15:40:31.734Z,92.12
2022-12-19T15:42:35.711Z,92.37
2022-12-19T15:44:42.235Z,91.82
2022-12-19T15:46:49.253Z,92.09
2022-12-19T15:48:53.018Z,91.95
2022-12-19T15:50:56.325Z,91.91
2022-12-19T15:53:01.978Z,91.85
2022-12-19T15:55:06.254Z,91.80
2022-12-19T15:57:19.733Z,91.68
2022-12-19T15:59:34.810Z,91.93
2022-12-19T16:01:40.592Z,92.34
2022-12-19T16:03:44.302Z,92.06
2022-12-19T16:05:48.462Z,92.01
2022-12-19T16:07:52.266Z,92.36
2022-12-19T16:09:57.130Z,92.61
2022-12-19T16:12:00.548Z,92.24
2022-12-19T16:14:03.895Z,92.37
2022-12-19T16:16:14.971Z,92.45
2022-12-19T16:18:19.897Z,92.12
2022-12-19T16:20:25.455Z,92.64
2022-12-19T16:22:30.285Z,92.92
2022-12-19T16:24:33.595Z,92.79
2022-12-19T16:26:40.721Z,92.36
2022-12-19T16:28:44.103Z,92.87
2022-12-19T16:30:47.736Z,92.69
2022-12-19T16:32:51.483Z,92.93
2022-12-19T16:34:55.144Z,93.10
2022-12-19T16:36:58.444Z,92.92
2022-12-19T16:39:01.882Z,92.98
2022-12-19T16:41:05.300Z,92.93
2022-12-19T16:43:16.199Z,93.14
2022-12-19T16:45:21.306Z,93.29
2022-12-19T16:47:24.917Z,93.18
2022-12-19T16:49:28.599Z,93.39
2022-12-19T16:51:32.215Z,93.18
2022-12-19T16:53:35.564Z,92.80
2022-12-19T16:55:39.187Z,93.19
2022-12-19T16:57:43.722Z,93.05
2022-12-19T16:59:49.469Z,92.99
2022-12-19T17:01:53.218Z,92.78
2022-12-19T17:03:56.817Z,92.72
2022-12-19T17:06:01.704Z,93.03
2022-12-19T17:08:12.603Z,93.03
2022-12-19T17:10:21.354Z,93.04
2022-12-19T17:12:29.645Z,92.90
2022-12-19T17:14:33.314Z,92.98
2022-12-19T17:16:38.566Z,92.56
2022-12-19T17:18:43.806Z,92.69
2022-12-19T17:20:47.615Z,92.77
2022-12-19T17:22:50.963Z,92.54
2022-12-19T17:24:54.360Z,92.49
2022-12-19T17:26:57.641Z,92.54
2022-12-19T17:29:00.991Z,92.40
2022-12-19T17:31:11.750Z,92.28
2022-12-19T17:33:17.824Z,92.20
2022-12-19T17:35:28.042Z,92.15
2022-12-19T17:37:31.963Z,92.15
2022-12-19T17:39:35.547Z,92.36
2022-12-19T17:41:38.901Z,92.31
2022-12-19T17:43:42.262Z,92.24
2022-12-19T17:45:46.097Z,92.21
2022-12-19T17:47:50.243Z,92.36
2022-12-19T17:49:54.996Z,92.38
2022-12-19T17:52:00.814Z,92.56
2022-12-19T17:54:04.429Z,92.30
2022-12-19T17:56:13.527Z,92.28
2022-12-19T17:58:17.432Z,92.13
2022-12-19T18:00:29.932Z,92.58
2022-12-19T18:02:36.091Z,92.24
2022-12-19T18:04:39.522Z,92.13
2022-12-19T18:06:44.616Z,92.28
2022-12-19T18:08:48.065Z,92.33
2022-12-19T18:10:51.503Z,92.46
2022-12-19T18:12:55.163Z,92.44
2022-12-19T18:14:58.769Z,92.12
2022-12-19T18:17:03.014Z,91.82
2022-12-19T18:19:06.738Z,92.05
2022-12-19T18:21:14.483Z,92.10
2022-12-19T18:23:22.544Z,92.04
2022-12-19T18:25:28.251Z,92.37
2022-12-19T18:27:31.928Z,92.46
2022-12-19T18:29:35.559Z,92.57
2022-12-19T18:31:43.451Z,92.51
2022-12-19T18:33:52.882Z,92.37
2022-12-19T18:35:56.306Z,92.67
2022-12-19T18:38:01.458Z,92.51
2022-12-19T18:40:20.248Z,92.57
2022-12-19T18:42:26.824Z,92.57
2022-12-19T18:44:30.072Z,92.63
2022-12-19T18:46:34.332Z,92.47
2022-12-19T18:48:38.544Z,92.49
2022-12-19T18:50:41.996Z,92.27
2022-12-19T18:52:45.465Z,92.10
2022-12-19T18:54:48.785Z,92.19
2022-12-19T18:56:53.590Z,91.80
2022-12-19T18:58:56.958Z,91.88
2022-12-19T19:01:01.745Z,91.61
2022-12-19T19:03:07.456Z,91.81
2022-12-19T19:05:16.784Z,91.86
2022-12-19T19:07:20.081Z,92.22
2022-12-19T19:09:23.994Z,92.16
2022-12-19T19:11:30.183Z,91.88
2022-12-19T19:13:34.838Z,92.11
2022-12-19T19:15:43.498Z,92.16
2022-12-19T19:17:49.322Z,91.97
2022-12-19T19:19:52.643Z,92.10
2022-12-19T19:21:56.105Z,92.23
2022-12-19T19:24:04.189Z,92.16
2022-12-19T19:26:07.716Z,92.15
2022-12-19T19:28:11.173Z,91.80
2022-12-19T19:30:16.185Z,91.63
2022-12-19T19:32:20.080Z,91.35
2022-12-19T19:34:28.360Z,91.38
2022-12-19T19:36:35.874Z,91.36
2022-12-19T19:38:41.446Z,90.97
2022-12-19T19:40:44.879Z,90.94
2022-12-19T19:42:49.132Z,91.14
2022-12-19T19:44:52.631Z,90.40
2022-12-19T19:46:57.432Z,90.91
2022-12-19T19:49:01.175Z,90.77
2022-12-19T19:51:05.414Z,90.44
2022-12-19T19:53:08.933Z,90.39
2022-12-19T19:55:14.452Z,90.69
2022-12-19T19:57:17.918Z,90.69
2022-12-19T19:59:21.369Z,90.61
2022-12-19T20:01:24.814Z,90.78
2022-12-19T20:03:30.002Z,91.26
2022-12-19T20:05:33.988Z,90.72
2022-12-19T20:07:37.437Z,90.85
2022-12-19T20:09:40.779Z,91.16
2022-12-19T20:11:44.185Z,90.97
2022-12-19T20:13:47.526Z,90.67
2022-12-19T20:15:51.223Z,91.50
2022-12-19T20:17:54.573Z,91.32
2022-12-19T20:19:59.478Z,91.14
2022-12-19T20:22:02.847Z,91.04
2022-12-19T20:24:06.759Z,91.49
2022-12-19T20:26:11.257Z,91.22
2022-12-19T20:28:14.900Z,91.08
2022-12-19T20:30:18.384Z,91.23
2022-12-19T20:32:21.748Z,91.33
2022-12-19T20:34:25.418Z,90.82
2022-12-19T20:36:30.181Z,90.99
2022-12-19T20:38:33.536Z,91.18
2022-12-19T20:40:36.924Z,91.31
2022-12-19T20:42:40.261Z,91.09
2022-12-19T20:44:43.671Z,91.23
2022-12-19T20:46:47.203Z,91.36
2022-12-19T20:48:51.223Z,90.99
2022-12-19T20:50:56.651Z,90.79
2022-12-19T20:53:01.599Z,90.89
2022-12-19T20:55:05.485Z,91.45
2022-12-19T20:57:08.822Z,91.49
2022-12-19T20:59:12.343Z,91.39
2022-12-19T21:01:18.937Z,91.55
2022-12-19T21:03:28.289Z,91.54
2022-12-19T21:05:32.691Z,91.26
2022-12-19T21:07:36.099Z,91.13
2022-12-19T21:09:44.788Z,90.94
2022-12-19T21:11:48.225Z,90.99
2022-12-19T21:13:51.569Z,91.13
2022-12-19T21:15:58.367Z,91.04
2022-12-19T21:18:02.459Z,94.01
2022-12-19T21:20:07.327Z,95.89
2022-12-19T21:22:10.960Z,89.88
2022-12-19T21:24:14.337Z,87.86
2022-12-19T21:26:21.736Z,88.49
2022-12-19T21:28:25.196Z,88.65
2022-12-19T21:30:28.517Z,89.32
2022-12-19T21:32:31.920Z,89.26
2022-12-19T21:34:35.261Z,90.25
2022-12-19T21:36:39.547Z,90.01
2022-12-19T21:38:43.363Z,90.37
2022-12-19T21:40:46.770Z,90.64
2022-12-19T21:42:51.493Z,90.16
2022-12-19T21:44:54.799Z,90.55
2022-12-19T21:46:58.198Z,90.97
2022-12-19T21:49:02.830Z,90.49
2022-12-19T21:51:06.796Z,91.13
2022-12-19T21:53:10.782Z,91.42
2022-12-19T21:55:14.213Z,91.14
2022-12-19T21:57:17.721Z,91.47
2022-12-19T21:59:22.614Z,91.74
2022-12-19T22:01:27.699Z,91.71
2022-12-19T22:03:31.434Z,91.77
2022-12-19T22:05:35.131Z,91.50
2022-12-19T22:07:38.605Z,91.21
2022-12-19T22:09:42.621Z,91.51
2022-12-19T22:11:47.007Z,91.76
2022-12-19T22:13:51.419Z,91.80
2022-12-19T22:16:00.778Z,91.79
2022-12-19T22:18:04.211Z,91.75
2022-12-19T22:20:10.039Z,91.64
2022-12-19T22:22:13.328Z,91.10
2022-12-19T22:24:19.909Z,91.31
2022-12-19T22:26:24.688Z,91.54
2022-12-19T22:28:30.453Z,91.33
2022-12-19T22:30:35.191Z,91.37
2022-12-19T22:32:39.926Z,91.70
2022-12-19T22:34:43.326Z,91.71
2022-12-19T22:36:47.698Z,90.87
2022-12-19T22:38:51.440Z,91.23
2022-12-19T22:40:54.882Z,90.95
2022-12-19T22:42:58.268Z,90.79
2022-12-19T22:45:01.629Z,90.71
2022-12-19T22:47:05.186Z,90.30
2022-12-19T22:49:12.036Z,90.33
2022-12-19T22:51:16.757Z,90.57
2022-12-19T22:53:20.346Z,90.11
2022-12-19T22:55:23.782Z,90.05
2022-12-19T22:57:27.074Z,90.51
2022-12-19T22:59:30.346Z,89.88
2022-12-19T23:01:36.670Z,89.95
2022-12-19T23:03:40.338Z,89.72
2022-12-19T23:05:51.592Z,89.84
2022-12-19T23:07:55.357Z,89.85
2022-12-19T23:09:58.681Z,89.49
2022-12-19T23:12:01.949Z,90.38
2022-12-19T23:14:07.632Z,90.62
2022-12-19T23:16:13.193Z,90.74
2022-12-19T23:18:16.620Z,90.22
2022-12-19T23:20:19.961Z,90.11
2022-12-19T23:22:24.617Z,90.50
2022-12-19T23:24:27.934Z,89.70
2022-12-19T23:26:35.118Z,89.13
2022-12-19T23:28:38.554Z,88.81
2022-12-19T23:30:41.834Z,88.44
2022-12-19T23:32:50.500Z,88.53
2022-12-19T23:34:54.415Z,88.12
2022-12-19T23:37:13.166Z,87.69
2022-12-19T23:39:18.078Z,87.14
2022-12-19T23:41:21.621Z,86.84
2022-12-19T23:43:24.988Z,87.14
2022-12-19T23:45:28.424Z,87.38
2022-12-19T23:47:31.888Z,86.59
2022-12-19T23:49:35.320Z,86.48
2022-12-19T23:51:38.725Z,86.35
2022-12-19T23:53:42.207Z,86.54
2022-12-19T23:55:50.142Z,86.47
2022-12-19T23:57:53.433Z,86.53
2022-12-19T23:59:56.745Z,86.05
